sensor_id;sensor_type;location;lat;lon;timestamp;temperature;humidity
51021;DHT22;38907;45.562;8.856;2024-03-22T00:00:06;13.20;99.90
51021;DHT22;38907;45.562;8.856;2024-03-22T00:05:13;13.30;99.90
51021;DHT22;38907;45.562;8.856;2024-03-22T00:10:17;13.20;99.90
51021;DHT22;38907;45.562;8.856;2024-03-22T00:15:18;13.20;99.90
51021;DHT22;38907;45.562;8.856;2024-03-22T00:20:21;13.00;99.90
51021;DHT22;38907;45.562;8.856;2024-03-22T00:25:23;13.00;99.90
51021;DHT22;38907;45.562;8.856;2024-03-22T00:30:25;13.00;99.90
51021;DHT22;38907;45.562;8.856;2024-03-22T00:35:29;12.90;99.90
51021;DHT22;38907;45.562;8.856;2024-03-22T00:40:31;12.90;99.90
51021;DHT22;38907;45.562;8.856;2024-03-22T00:45:33;12.80;99.90
51021;DHT22;38907;45.562;8.856;2024-03-22T00:50:36;12.70;99.90
51021;DHT22;38907;45.562;8.856;2024-03-22T00:55:38;12.70;99.90
51021;DHT22;38907;45.562;8.856;2024-03-22T01:00:39;12.60;99.90
51021;DHT22;38907;45.562;8.856;2024-03-22T01:05:42;12.70;99.90
51021;DHT22;38907;45.562;8.856;2024-03-22T01:10:45;12.70;99.90
51021;DHT22;38907;45.562;8.856;2024-03-22T01:15:46;12.60;99.90
51021;DHT22;38907;45.562;8.856;2024-03-22T01:20:49;12.60;99.90
51021;DHT22;38907;45.562;8.856;2024-03-22T01:25:51;12.50;99.90
51021;DHT22;38907;45.562;8.856;2024-03-22T01:30:53;12.50;99.90
51021;DHT22;38907;45.562;8.856;2024-03-22T01:35:56;12.50;99.90
51021;DHT22;38907;45.562;8.856;2024-03-22T01:40:58;12.50;99.90
51021;DHT22;38907;45.562;8.856;2024-03-22T01:45:59;12.40;99.90
51021;DHT22;38907;45.562;8.856;2024-03-22T01:51:04;12.30;99.90
51021;DHT22;38907;45.562;8.856;2024-03-22T01:56:07;12.30;99.90
51021;DHT22;38907;45.562;8.856;2024-03-22T02:01:09;12.30;99.90
51021;DHT22;38907;45.562;8.856;2024-03-22T02:06:12;12.30;99.90
51021;DHT22;38907;45.562;8.856;2024-03-22T02:11:14;12.30;99.90
51021;DHT22;38907;45.562;8.856;2024-03-22T02:16:16;12.40;99.90
51021;DHT22;38907;45.562;8.856;2024-03-22T02:21:19;12.30;99.90
51021;DHT22;38907;45.562;8.856;2024-03-22T02:26:22;12.30;99.90
51021;DHT22;38907;45.562;8.856;2024-03-22T02:31:24;12.30;99.90
51021;DHT22;38907;45.562;8.856;2024-03-22T02:36:28;12.30;99.90
51021;DHT22;38907;45.562;8.856;2024-03-22T02:41:31;12.30;99.90
51021;DHT22;38907;45.562;8.856;2024-03-22T02:46:33;12.20;99.90
51021;DHT22;38907;45.562;8.856;2024-03-22T02:51:35;12.10;99.90
51021;DHT22;38907;45.562;8.856;2024-03-22T02:56:38;12.10;99.90
51021;DHT22;38907;45.562;8.856;2024-03-22T03:01:39;12.00;99.90
51021;DHT22;38907;45.562;8.856;2024-03-22T03:06:41;11.80;99.90
51021;DHT22;38907;45.562;8.856;2024-03-22T03:11:44;11.80;99.90
51021;DHT22;38907;45.562;8.856;2024-03-22T03:16:46;11.80;99.90
51021;DHT22;38907;45.562;8.856;2024-03-22T03:21:48;11.70;99.90
51021;DHT22;38907;45.562;8.856;2024-03-22T03:26:51;11.80;99.90
51021;DHT22;38907;45.562;8.856;2024-03-22T03:31:53;11.60;99.90
51021;DHT22;38907;45.562;8.856;2024-03-22T03:36:54;11.60;99.90
51021;DHT22;38907;45.562;8.856;2024-03-22T03:41:58;11.50;99.90
51021;DHT22;38907;45.562;8.856;2024-03-22T03:47:00;11.40;99.90
51021;DHT22;38907;45.562;8.856;2024-03-22T03:52:02;11.50;99.90
51021;DHT22;38907;45.562;8.856;2024-03-22T03:57:05;11.50;99.90
51021;DHT22;38907;45.562;8.856;2024-03-22T04:02:08;11.30;99.90
51021;DHT22;38907;45.562;8.856;2024-03-22T04:07:09;11.30;99.90
51021;DHT22;38907;45.562;8.856;2024-03-22T04:12:12;11.30;99.90
51021;DHT22;38907;45.562;8.856;2024-03-22T04:17:14;11.40;99.90
51021;DHT22;38907;45.562;8.856;2024-03-22T04:22:16;11.30;99.90
51021;DHT22;38907;45.562;8.856;2024-03-22T04:27:19;11.40;99.90
51021;DHT22;38907;45.562;8.856;2024-03-22T04:32:21;11.40;99.90
51021;DHT22;38907;45.562;8.856;2024-03-22T04:37:23;11.40;99.90
51021;DHT22;38907;45.562;8.856;2024-03-22T04:42:26;11.40;99.90
51021;DHT22;38907;45.562;8.856;2024-03-22T04:47:28;11.50;99.90
51021;DHT22;38907;45.562;8.856;2024-03-22T04:52:29;11.50;99.90
51021;DHT22;38907;45.562;8.856;2024-03-22T04:57:33;11.50;99.90
51021;DHT22;38907;45.562;8.856;2024-03-22T05:02:35;11.60;99.90
51021;DHT22;38907;45.562;8.856;2024-03-22T05:07:36;11.50;99.90
51021;DHT22;38907;45.562;8.856;2024-03-22T05:12:39;11.60;99.90
51021;DHT22;38907;45.562;8.856;2024-03-22T05:17:41;11.70;99.90
51021;DHT22;38907;45.562;8.856;2024-03-22T05:22:43;11.70;99.90
51021;DHT22;38907;45.562;8.856;2024-03-22T05:27:47;11.70;99.90
51021;DHT22;38907;45.562;8.856;2024-03-22T05:32:48;11.60;99.90
51021;DHT22;38907;45.562;8.856;2024-03-22T05:37:50;11.70;99.90
51021;DHT22;38907;45.562;8.856;2024-03-22T05:42:53;11.70;99.90
51021;DHT22;38907;45.562;8.856;2024-03-22T05:47:55;11.70;99.90
51021;DHT22;38907;45.562;8.856;2024-03-22T05:52:57;11.60;99.90
51021;DHT22;38907;45.562;8.856;2024-03-22T05:58:00;11.60;99.90
51021;DHT22;38907;45.562;8.856;2024-03-22T06:03:02;11.60;99.90
51021;DHT22;38907;45.562;8.856;2024-03-22T06:08:05;11.50;99.90
51021;DHT22;38907;45.562;8.856;2024-03-22T06:13:08;11.60;99.90
51021;DHT22;38907;45.562;8.856;2024-03-22T06:18:10;11.60;99.90
51021;DHT22;38907;45.562;8.856;2024-03-22T06:23:12;11.80;99.90
51021;DHT22;38907;45.562;8.856;2024-03-22T06:28:15;11.90;99.90
51021;DHT22;38907;45.562;8.856;2024-03-22T06:33:16;12.10;99.90
51021;DHT22;38907;45.562;8.856;2024-03-22T06:38:18;12.30;99.90
51021;DHT22;38907;45.562;8.856;2024-03-22T06:43:21;12.50;99.90
51021;DHT22;38907;45.562;8.856;2024-03-22T06:48:23;12.70;99.90
51021;DHT22;38907;45.562;8.856;2024-03-22T06:53:25;12.90;99.90
51021;DHT22;38907;45.562;8.856;2024-03-22T06:58:29;13.00;99.90
51021;DHT22;38907;45.562;8.856;2024-03-22T07:03:30;13.00;99.90
51021;DHT22;38907;45.562;8.856;2024-03-22T07:08:32;13.10;99.90
51021;DHT22;38907;45.562;8.856;2024-03-22T07:13:35;13.30;99.90
51021;DHT22;38907;45.562;8.856;2024-03-22T07:18:37;13.50;99.90
51021;DHT22;38907;45.562;8.856;2024-03-22T07:23:39;13.70;99.90
51021;DHT22;38907;45.562;8.856;2024-03-22T07:28:53;13.80;99.90
51021;DHT22;38907;45.562;8.856;2024-03-22T07:33:55;13.90;99.90
51021;DHT22;38907;45.562;8.856;2024-03-22T07:38:57;14.10;99.90
51021;DHT22;38907;45.562;8.856;2024-03-22T07:44:00;14.20;99.90
51021;DHT22;38907;45.562;8.856;2024-03-22T07:49:01;14.40;99.90
51021;DHT22;38907;45.562;8.856;2024-03-22T07:54:04;14.50;99.90
51021;DHT22;38907;45.562;8.856;2024-03-22T07:59:08;14.60;99.90
51021;DHT22;38907;45.562;8.856;2024-03-22T08:04:09;14.70;99.90
51021;DHT22;38907;45.562;8.856;2024-03-22T08:09:11;14.80;99.90
51021;DHT22;38907;45.562;8.856;2024-03-22T08:14:14;15.00;99.90
51021;DHT22;38907;45.562;8.856;2024-03-22T08:19:16;15.10;99.90
51021;DHT22;38907;45.562;8.856;2024-03-22T08:24:18;15.20;99.90
51021;DHT22;38907;45.562;8.856;2024-03-22T08:29:21;15.20;99.90
51021;DHT22;38907;45.562;8.856;2024-03-22T08:34:23;15.30;99.90
51021;DHT22;38907;45.562;8.856;2024-03-22T08:39:25;15.40;99.90
51021;DHT22;38907;45.562;8.856;2024-03-22T08:44:28;15.40;99.90
51021;DHT22;38907;45.562;8.856;2024-03-22T08:49:30;15.50;99.90
51021;DHT22;38907;45.562;8.856;2024-03-22T08:54:32;15.70;99.90
51021;DHT22;38907;45.562;8.856;2024-03-22T08:59:36;15.70;99.90
51021;DHT22;38907;45.562;8.856;2024-03-22T09:04:38;15.90;99.90
51021;DHT22;38907;45.562;8.856;2024-03-22T09:09:40;15.90;99.90
51021;DHT22;38907;45.562;8.856;2024-03-22T09:14:43;16.10;99.90
51021;DHT22;38907;45.562;8.856;2024-03-22T09:19:45;16.20;99.90
51021;DHT22;38907;45.562;8.856;2024-03-22T09:24:47;16.30;99.90
51021;DHT22;38907;45.562;8.856;2024-03-22T09:29:50;16.40;99.90
51021;DHT22;38907;45.562;8.856;2024-03-22T09:34:53;16.50;99.90
51021;DHT22;38907;45.562;8.856;2024-03-22T09:39:55;16.60;99.90
51021;DHT22;38907;45.562;8.856;2024-03-22T09:44:58;16.60;99.90
51021;DHT22;38907;45.562;8.856;2024-03-22T09:50:01;16.70;99.90
51021;DHT22;38907;45.562;8.856;2024-03-22T09:55:05;16.80;99.90
51021;DHT22;38907;45.562;8.856;2024-03-22T10:00:09;16.80;99.90
51021;DHT22;38907;45.562;8.856;2024-03-22T10:05:11;17.00;99.90
51021;DHT22;38907;45.562;8.856;2024-03-22T10:10:12;17.10;99.90
51021;DHT22;38907;45.562;8.856;2024-03-22T10:15:17;17.20;99.90
51021;DHT22;38907;45.562;8.856;2024-03-22T10:20:19;17.30;99.90
51021;DHT22;38907;45.562;8.856;2024-03-22T10:25:21;17.30;99.90
51021;DHT22;38907;45.562;8.856;2024-03-22T10:30:25;17.30;99.90
51021;DHT22;38907;45.562;8.856;2024-03-22T10:35:27;17.40;99.90
51021;DHT22;38907;45.562;8.856;2024-03-22T10:40:29;17.60;99.90
51021;DHT22;38907;45.562;8.856;2024-03-22T10:45:33;17.60;99.90
51021;DHT22;38907;45.562;8.856;2024-03-22T10:50:38;17.40;99.90
51021;DHT22;38907;45.562;8.856;2024-03-22T10:55:43;17.50;99.90
51021;DHT22;38907;45.562;8.856;2024-03-22T11:00:46;17.60;99.90
51021;DHT22;38907;45.562;8.856;2024-03-22T11:05:49;17.80;99.90
51021;DHT22;38907;45.562;8.856;2024-03-22T11:10:51;17.90;99.90
51021;DHT22;38907;45.562;8.856;2024-03-22T11:15:54;18.20;99.90
51021;DHT22;38907;45.562;8.856;2024-03-22T11:20:56;18.00;99.90
51021;DHT22;38907;45.562;8.856;2024-03-22T11:25:58;18.00;99.90
51021;DHT22;38907;45.562;8.856;2024-03-22T11:31:02;18.10;99.90
51021;DHT22;38907;45.562;8.856;2024-03-22T11:36:04;18.20;99.90
51021;DHT22;38907;45.562;8.856;2024-03-22T11:41:06;18.40;99.90
51021;DHT22;38907;45.562;8.856;2024-03-22T11:46:10;18.20;99.90
51021;DHT22;38907;45.562;8.856;2024-03-22T11:51:12;18.30;99.90
51021;DHT22;38907;45.562;8.856;2024-03-22T11:56:14;18.30;99.90
51021;DHT22;38907;45.562;8.856;2024-03-22T12:01:21;18.50;99.90
51021;DHT22;38907;45.562;8.856;2024-03-22T12:06:24;18.60;99.90
51021;DHT22;38907;45.562;8.856;2024-03-22T12:11:26;18.60;99.90
51021;DHT22;38907;45.562;8.856;2024-03-22T12:16:29;18.50;99.90
51021;DHT22;38907;45.562;8.856;2024-03-22T12:21:30;18.80;99.90
51021;DHT22;38907;45.562;8.856;2024-03-22T12:26:32;18.70;99.90
51021;DHT22;38907;45.562;8.856;2024-03-22T12:31:37;18.90;99.90
51021;DHT22;38907;45.562;8.856;2024-03-22T12:36:39;18.80;99.90
51021;DHT22;38907;45.562;8.856;2024-03-22T12:41:41;19.00;99.90
51021;DHT22;38907;45.562;8.856;2024-03-22T12:46:44;18.80;99.90
51021;DHT22;38907;45.562;8.856;2024-03-22T12:51:46;18.90;99.90
51021;DHT22;38907;45.562;8.856;2024-03-22T12:56:48;18.90;99.90
51021;DHT22;38907;45.562;8.856;2024-03-22T13:01:51;19.00;99.90
51021;DHT22;38907;45.562;8.856;2024-03-22T13:06:54;19.10;99.90
51021;DHT22;38907;45.562;8.856;2024-03-22T13:11:56;19.10;99.90
51021;DHT22;38907;45.562;8.856;2024-03-22T13:16:59;19.10;99.90
51021;DHT22;38907;45.562;8.856;2024-03-22T13:22:01;19.20;99.90
51021;DHT22;38907;45.562;8.856;2024-03-22T13:27:03;19.30;99.90
51021;DHT22;38907;45.562;8.856;2024-03-22T13:32:06;19.30;99.90
51021;DHT22;38907;45.562;8.856;2024-03-22T13:37:08;19.20;99.90
51021;DHT22;38907;45.562;8.856;2024-03-22T13:42:10;19.30;99.90
51021;DHT22;38907;45.562;8.856;2024-03-22T13:47:14;19.30;99.90
51021;DHT22;38907;45.562;8.856;2024-03-22T13:52:15;19.30;99.90
51021;DHT22;38907;45.562;8.856;2024-03-22T13:57:18;19.40;99.90
51021;DHT22;38907;45.562;8.856;2024-03-22T14:02:22;19.30;99.90
51021;DHT22;38907;45.562;8.856;2024-03-22T14:07:26;19.30;99.90
51021;DHT22;38907;45.562;8.856;2024-03-22T14:12:28;19.20;99.90
51021;DHT22;38907;45.562;8.856;2024-03-22T14:17:31;19.20;99.90
51021;DHT22;38907;45.562;8.856;2024-03-22T14:22:33;19.30;99.90
51021;DHT22;38907;45.562;8.856;2024-03-22T14:27:35;19.20;99.90
51021;DHT22;38907;45.562;8.856;2024-03-22T14:32:39;19.20;99.90
51021;DHT22;38907;45.562;8.856;2024-03-22T14:37:41;19.20;99.90
51021;DHT22;38907;45.562;8.856;2024-03-22T14:42:43;19.20;99.90
51021;DHT22;38907;45.562;8.856;2024-03-22T14:47:46;19.20;99.90
51021;DHT22;38907;45.562;8.856;2024-03-22T14:52:48;19.20;99.90
51021;DHT22;38907;45.562;8.856;2024-03-22T14:57:50;19.20;99.90
51021;DHT22;38907;45.562;8.856;2024-03-22T15:02:53;19.30;99.90
51021;DHT22;38907;45.562;8.856;2024-03-22T15:07:54;19.20;99.90
51021;DHT22;38907;45.562;8.856;2024-03-22T15:12:56;19.20;99.90
51021;DHT22;38907;45.562;8.856;2024-03-22T15:17:59;19.30;99.90
51021;DHT22;38907;45.562;8.856;2024-03-22T15:23:01;19.20;99.90
51021;DHT22;38907;45.562;8.856;2024-03-22T15:28:03;19.20;99.90
51021;DHT22;38907;45.562;8.856;2024-03-22T15:33:06;19.30;99.90
51021;DHT22;38907;45.562;8.856;2024-03-22T15:38:09;19.20;99.90
51021;DHT22;38907;45.562;8.856;2024-03-22T15:43:11;19.20;99.90
51021;DHT22;38907;45.562;8.856;2024-03-22T15:48:14;19.20;99.90
51021;DHT22;38907;45.562;8.856;2024-03-22T15:53:20;19.00;99.90
51021;DHT22;38907;45.562;8.856;2024-03-22T15:58:21;18.90;99.90
51021;DHT22;38907;45.562;8.856;2024-03-22T16:03:25;18.80;99.90
51021;DHT22;38907;45.562;8.856;2024-03-22T16:08:26;18.80;99.90
51021;DHT22;38907;45.562;8.856;2024-03-22T16:13:29;18.60;99.90
51021;DHT22;38907;45.562;8.856;2024-03-22T16:18:32;18.60;99.90
51021;DHT22;38907;45.562;8.856;2024-03-22T16:23:34;18.70;99.90
51021;DHT22;38907;45.562;8.856;2024-03-22T16:28:36;18.80;99.90
51021;DHT22;38907;45.562;8.856;2024-03-22T16:33:39;18.70;99.90
51021;DHT22;38907;45.562;8.856;2024-03-22T16:38:41;18.60;99.90
51021;DHT22;38907;45.562;8.856;2024-03-22T16:43:42;18.60;99.90
51021;DHT22;38907;45.562;8.856;2024-03-22T16:48:46;18.60;99.90
51021;DHT22;38907;45.562;8.856;2024-03-22T16:53:48;18.60;99.90
51021;DHT22;38907;45.562;8.856;2024-03-22T16:58:49;18.40;99.90
51021;DHT22;38907;45.562;8.856;2024-03-22T17:03:53;18.40;99.90
51021;DHT22;38907;45.562;8.856;2024-03-22T17:08:55;18.20;99.90
51021;DHT22;38907;45.562;8.856;2024-03-22T17:13:56;18.10;99.90
51021;DHT22;38907;45.562;8.856;2024-03-22T17:19:00;17.90;99.90
51021;DHT22;38907;45.562;8.856;2024-03-22T17:24:04;17.70;99.90
51021;DHT22;38907;45.562;8.856;2024-03-22T17:29:06;17.60;99.90
51021;DHT22;38907;45.562;8.856;2024-03-22T17:34:10;17.50;99.90
51021;DHT22;38907;45.562;8.856;2024-03-22T17:39:12;17.40;99.90
51021;DHT22;38907;45.562;8.856;2024-03-22T17:44:14;17.20;99.90
51021;DHT22;38907;45.562;8.856;2024-03-22T17:49:17;17.00;99.90
51021;DHT22;38907;45.562;8.856;2024-03-22T17:54:19;17.10;99.90
51021;DHT22;38907;45.562;8.856;2024-03-22T17:59:21;17.00;99.90
51021;DHT22;38907;45.562;8.856;2024-03-22T18:04:24;16.80;99.90
51021;DHT22;38907;45.562;8.856;2024-03-22T18:09:26;16.70;99.90
51021;DHT22;38907;45.562;8.856;2024-03-22T18:14:29;16.80;99.90
51021;DHT22;38907;45.562;8.856;2024-03-22T18:19:32;16.50;99.90
51021;DHT22;38907;45.562;8.856;2024-03-22T18:24:34;16.40;99.90
51021;DHT22;38907;45.562;8.856;2024-03-22T18:29:35;16.40;99.90
51021;DHT22;38907;45.562;8.856;2024-03-22T18:34:39;16.20;99.90
51021;DHT22;38907;45.562;8.856;2024-03-22T18:39:40;16.10;99.90
51021;DHT22;38907;45.562;8.856;2024-03-22T18:44:42;16.10;99.90
51021;DHT22;38907;45.562;8.856;2024-03-22T18:49:46;16.10;99.90
51021;DHT22;38907;45.562;8.856;2024-03-22T18:54:55;16.10;99.90
51021;DHT22;38907;45.562;8.856;2024-03-22T18:59:58;15.90;99.90
51021;DHT22;38907;45.562;8.856;2024-03-22T19:05:02;15.90;99.90
51021;DHT22;38907;45.562;8.856;2024-03-22T19:10:04;15.50;99.90
51021;DHT22;38907;45.562;8.856;2024-03-22T19:15:08;15.60;99.90
51021;DHT22;38907;45.562;8.856;2024-03-22T19:20:12;15.50;99.90
51021;DHT22;38907;45.562;8.856;2024-03-22T19:25:14;15.40;99.90
51021;DHT22;38907;45.562;8.856;2024-03-22T19:30:16;15.60;99.90
51021;DHT22;38907;45.562;8.856;2024-03-22T19:35:23;15.50;99.90
51021;DHT22;38907;45.562;8.856;2024-03-22T19:40:24;15.10;99.90
51021;DHT22;38907;45.562;8.856;2024-03-22T19:45:26;15.00;99.90
51021;DHT22;38907;45.562;8.856;2024-03-22T19:50:29;14.60;99.90
51021;DHT22;38907;45.562;8.856;2024-03-22T19:55:31;14.80;99.90
51021;DHT22;38907;45.562;8.856;2024-03-22T20:00:33;15.00;99.90
51021;DHT22;38907;45.562;8.856;2024-03-22T20:05:36;14.90;99.90
51021;DHT22;38907;45.562;8.856;2024-03-22T20:10:38;14.80;99.90
51021;DHT22;38907;45.562;8.856;2024-03-22T20:15:40;14.90;99.90
51021;DHT22;38907;45.562;8.856;2024-03-22T20:20:45;14.80;99.90
51021;DHT22;38907;45.562;8.856;2024-03-22T20:25:46;14.60;99.90
51021;DHT22;38907;45.562;8.856;2024-03-22T20:30:48;14.70;99.90
51021;DHT22;38907;45.562;8.856;2024-03-22T20:35:51;14.60;99.90
